sensor_id;sensor_type;location;lat;lon;timestamp;P1;durP1;ratioP1;P2;durP2;ratioP2
48403;SDS011;34202;52.536;6.042;2022-08-01T00:03:03;3.40;;;2.50;;
48403;SDS011;34202;52.536;6.042;2022-08-01T00:08:04;2.80;;;1.90;;
48403;SDS011;34202;52.536;6.042;2022-08-01T00:13:04;2.50;;;2.20;;
48403;SDS011;34202;52.536;6.042;2022-08-01T00:18:04;2.50;;;2.30;;
48403;SDS011;34202;52.536;6.042;2022-08-01T00:23:05;2.50;;;2.20;;
48403;SDS011;34202;52.536;6.042;2022-08-01T00:28:05;4.50;;;3.30;;
48403;SDS011;34202;52.536;6.042;2022-08-01T00:33:08;3.80;;;3.20;;
48403;SDS011;34202;52.536;6.042;2022-08-01T00:38:08;3.90;;;3.60;;
48403;SDS011;34202;52.536;6.042;2022-08-01T00:43:09;5.90;;;4.00;;
48403;SDS011;34202;52.536;6.042;2022-08-01T00:48:09;4.00;;;3.40;;
48403;SDS011;34202;52.536;6.042;2022-08-01T00:53:10;4.60;;;4.30;;
48403;SDS011;34202;52.536;6.042;2022-08-01T00:58:10;4.70;;;3.40;;
48403;SDS011;34202;52.536;6.042;2022-08-01T01:03:11;6.00;;;3.90;;
48403;SDS011;34202;52.536;6.042;2022-08-01T01:08:13;4.20;;;3.60;;
48403;SDS011;34202;52.536;6.042;2022-08-01T01:13:24;4.30;;;3.60;;
48403;SDS011;34202;52.536;6.042;2022-08-01T01:18:30;4.40;;;3.50;;
48403;SDS011;34202;52.536;6.042;2022-08-01T01:23:40;8.60;;;4.30;;
48403;SDS011;34202;52.536;6.042;2022-08-01T01:34:43;4.30;;;3.50;;
48403;SDS011;34202;52.536;6.042;2022-08-01T01:39:44;4.00;;;3.30;;
48403;SDS011;34202;52.536;6.042;2022-08-01T01:44:48;4.80;;;2.70;;
48403;SDS011;34202;52.536;6.042;2022-08-01T01:49:50;2.00;;;1.90;;
48403;SDS011;34202;52.536;6.042;2022-08-01T01:54:52;2.70;;;2.40;;
48403;SDS011;34202;52.536;6.042;2022-08-01T01:59:55;2.60;;;2.00;;
48403;SDS011;34202;52.536;6.042;2022-08-01T02:04:58;2.10;;;1.90;;
48403;SDS011;34202;52.536;6.042;2022-08-01T02:09:59;4.10;;;1.50;;
48403;SDS011;34202;52.536;6.042;2022-08-01T02:15:02;2.30;;;2.10;;
48403;SDS011;34202;52.536;6.042;2022-08-01T02:20:03;1.70;;;1.60;;
48403;SDS011;34202;52.536;6.042;2022-08-01T02:25:20;2.20;;;1.40;;
48403;SDS011;34202;52.536;6.042;2022-08-01T02:30:22;2.00;;;1.90;;
48403;SDS011;34202;52.536;6.042;2022-08-01T02:35:30;1.90;;;1.80;;
48403;SDS011;34202;52.536;6.042;2022-08-01T02:40:33;2.20;;;1.80;;
48403;SDS011;34202;52.536;6.042;2022-08-01T02:45:40;2.20;;;1.60;;
48403;SDS011;34202;52.536;6.042;2022-08-01T02:50:46;2.10;;;1.90;;
48403;SDS011;34202;52.536;6.042;2022-08-01T02:55:48;2.00;;;1.90;;
48403;SDS011;34202;52.536;6.042;2022-08-01T03:00:51;6.30;;;2.40;;
48403;SDS011;34202;52.536;6.042;2022-08-01T03:05:53;5.60;;;3.00;;
48403;SDS011;34202;52.536;6.042;2022-08-01T03:10:54;2.50;;;2.30;;
48403;SDS011;34202;52.536;6.042;2022-08-01T03:15:56;4.20;;;2.60;;
48403;SDS011;34202;52.536;6.042;2022-08-01T03:20:59;2.50;;;2.30;;
48403;SDS011;34202;52.536;6.042;2022-08-01T03:26:00;4.70;;;2.60;;
48403;SDS011;34202;52.536;6.042;2022-08-01T03:31:02;4.00;;;2.20;;
48403;SDS011;34202;52.536;6.042;2022-08-01T03:36:03;3.90;;;2.70;;
48403;SDS011;34202;52.536;6.042;2022-08-01T03:41:15;4.10;;;2.60;;
48403;SDS011;34202;52.536;6.042;2022-08-01T03:46:22;6.30;;;2.90;;
48403;SDS011;34202;52.536;6.042;2022-08-01T03:51:32;3.20;;;2.20;;
48403;SDS011;34202;52.536;6.042;2022-08-01T03:56:33;3.80;;;3.00;;
48403;SDS011;34202;52.536;6.042;2022-08-01T04:01:34;5.10;;;2.40;;
48403;SDS011;34202;52.536;6.042;2022-08-01T04:06:40;3.00;;;2.20;;
48403;SDS011;34202;52.536;6.042;2022-08-01T04:11:41;5.50;;;3.00;;
48403;SDS011;34202;52.536;6.042;2022-08-01T04:16:42;4.30;;;2.80;;
48403;SDS011;34202;52.536;6.042;2022-08-01T04:21:42;4.50;;;2.90;;
48403;SDS011;34202;52.536;6.042;2022-08-01T04:26:43;3.40;;;3.10;;
48403;SDS011;34202;52.536;6.042;2022-08-01T04:31:46;5.30;;;3.10;;
48403;SDS011;34202;52.536;6.042;2022-08-01T04:36:48;6.50;;;3.40;;
48403;SDS011;34202;52.536;6.042;2022-08-01T04:41:51;2.90;;;2.60;;
48403;SDS011;34202;52.536;6.042;2022-08-01T04:46:52;5.60;;;3.80;;
48403;SDS011;34202;52.536;6.042;2022-08-01T04:51:55;7.30;;;3.10;;
48403;SDS011;34202;52.536;6.042;2022-08-01T04:56:57;3.10;;;2.70;;
48403;SDS011;34202;52.536;6.042;2022-08-01T05:01:59;7.90;;;4.10;;
48403;SDS011;34202;52.536;6.042;2022-08-01T05:07:00;6.90;;;2.90;;
48403;SDS011;34202;52.536;6.042;2022-08-01T05:12:01;4.80;;;3.20;;
48403;SDS011;34202;52.536;6.042;2022-08-01T05:17:06;4.60;;;2.60;;
48403;SDS011;34202;52.536;6.042;2022-08-01T05:22:07;11.50;;;2.70;;
48403;SDS011;34202;52.536;6.042;2022-08-01T05:27:09;4.00;;;2.40;;
48403;SDS011;34202;52.536;6.042;2022-08-01T05:32:09;6.80;;;2.70;;
48403;SDS011;34202;52.536;6.042;2022-08-01T05:37:10;6.50;;;2.10;;
48403;SDS011;34202;52.536;6.042;2022-08-01T05:42:11;5.20;;;2.40;;
48403;SDS011;34202;52.536;6.042;2022-08-01T05:47:11;4.10;;;2.70;;
48403;SDS011;34202;52.536;6.042;2022-08-01T05:52:11;6.60;;;2.70;;
48403;SDS011;34202;52.536;6.042;2022-08-01T05:57:12;11.90;;;3.70;;
48403;SDS011;34202;52.536;6.042;2022-08-01T06:02:12;11.70;;;3.20;;
48403;SDS011;34202;52.536;6.042;2022-08-01T06:07:13;10.50;;;2.70;;
48403;SDS011;34202;52.536;6.042;2022-08-01T06:12:14;7.80;;;2.60;;
48403;SDS011;34202;52.536;6.042;2022-08-01T06:17:14;11.80;;;4.60;;
48403;SDS011;34202;52.536;6.042;2022-08-01T06:22:14;10.40;;;2.90;;
48403;SDS011;34202;52.536;6.042;2022-08-01T06:27:15;14.40;;;2.60;;
48403;SDS011;34202;52.536;6.042;2022-08-01T06:32:15;10.80;;;2.90;;
48403;SDS011;34202;52.536;6.042;2022-08-01T06:37:16;12.80;;;4.30;;
48403;SDS011;34202;52.536;6.042;2022-08-01T06:42:16;14.20;;;3.60;;
48403;SDS011;34202;52.536;6.042;2022-08-01T06:47:17;13.10;;;2.60;;
48403;SDS011;34202;52.536;6.042;2022-08-01T06:52:17;8.00;;;2.10;;
48403;SDS011;34202;52.536;6.042;2022-08-01T06:57:17;12.30;;;2.90;;
48403;SDS011;34202;52.536;6.042;2022-08-01T07:02:18;10.80;;;2.90;;
48403;SDS011;34202;52.536;6.042;2022-08-01T07:07:19;15.80;;;3.30;;
48403;SDS011;34202;52.536;6.042;2022-08-01T07:12:19;15.10;;;3.60;;
48403;SDS011;34202;52.536;6.042;2022-08-01T07:17:19;15.90;;;3.50;;
48403;SDS011;34202;52.536;6.042;2022-08-01T07:22:20;12.50;;;3.20;;
48403;SDS011;34202;52.536;6.042;2022-08-01T07:27:21;11.30;;;2.40;;
48403;SDS011;34202;52.536;6.042;2022-08-01T07:32:21;12.00;;;2.70;;
48403;SDS011;34202;52.536;6.042;2022-08-01T07:37:22;10.80;;;2.10;;
48403;SDS011;34202;52.536;6.042;2022-08-01T07:42:23;8.10;;;2.40;;
48403;SDS011;34202;52.536;6.042;2022-08-01T07:47:24;15.30;;;2.50;;
48403;SDS011;34202;52.536;6.042;2022-08-01T07:52:25;13.20;;;2.90;;
48403;SDS011;34202;52.536;6.042;2022-08-01T07:57:26;15.60;;;2.10;;
48403;SDS011;34202;52.536;6.042;2022-08-01T08:02:27;12.20;;;2.50;;
48403;SDS011;34202;52.536;6.042;2022-08-01T08:07:27;12.60;;;2.50;;
48403;SDS011;34202;52.536;6.042;2022-08-01T08:12:27;13.70;;;3.30;;
48403;SDS011;34202;52.536;6.042;2022-08-01T08:17:28;10.80;;;2.30;;
48403;SDS011;34202;52.536;6.042;2022-08-01T08:22:28;10.20;;;2.00;;
48403;SDS011;34202;52.536;6.042;2022-08-01T08:27:29;10.90;;;1.80;;
48403;SDS011;34202;52.536;6.042;2022-08-01T08:32:30;11.40;;;3.00;;
48403;SDS011;34202;52.536;6.042;2022-08-01T08:37:31;21.20;;;3.80;;
48403;SDS011;34202;52.536;6.042;2022-08-01T08:42:31;10.70;;;2.10;;
48403;SDS011;34202;52.536;6.042;2022-08-01T08:47:32;10.90;;;3.00;;
48403;SDS011;34202;52.536;6.042;2022-08-01T08:52:35;11.80;;;2.70;;
48403;SDS011;34202;52.536;6.042;2022-08-01T08:57:39;19.60;;;3.10;;
48403;SDS011;34202;52.536;6.042;2022-08-01T09:02:44;12.20;;;3.10;;
48403;SDS011;34202;52.536;6.042;2022-08-01T09:07:46;11.30;;;2.60;;
48403;SDS011;34202;52.536;6.042;2022-08-01T09:18:26;5.90;;;1.70;;
48403;SDS011;34202;52.536;6.042;2022-08-01T09:28:32;10.60;;;2.30;;
48403;SDS011;34202;52.536;6.042;2022-08-01T09:39:04;9.00;;;2.10;;
48403;SDS011;34202;52.536;6.042;2022-08-01T09:44:12;9.90;;;2.30;;
48403;SDS011;34202;52.536;6.042;2022-08-01T09:49:13;9.00;;;1.80;;
48403;SDS011;34202;52.536;6.042;2022-08-01T09:54:13;13.70;;;2.50;;
48403;SDS011;34202;52.536;6.042;2022-08-01T10:04:48;5.80;;;2.00;;
48403;SDS011;34202;52.536;6.042;2022-08-01T10:09:49;10.80;;;1.90;;
48403;SDS011;34202;52.536;6.042;2022-08-01T10:14:50;10.90;;;2.00;;
48403;SDS011;34202;52.536;6.042;2022-08-01T10:19:55;7.10;;;1.90;;
48403;SDS011;34202;52.536;6.042;2022-08-01T10:24:56;8.80;;;2.00;;
48403;SDS011;34202;52.536;6.042;2022-08-01T10:30:03;9.50;;;2.40;;
48403;SDS011;34202;52.536;6.042;2022-08-01T10:35:05;7.20;;;1.60;;
48403;SDS011;34202;52.536;6.042;2022-08-01T10:40:06;6.80;;;1.80;;
48403;SDS011;34202;52.536;6.042;2022-08-01T10:45:08;9.40;;;1.70;;
48403;SDS011;34202;52.536;6.042;2022-08-01T10:50:14;9.60;;;2.70;;
48403;SDS011;34202;52.536;6.042;2022-08-01T10:55:19;12.50;;;2.40;;
48403;SDS011;34202;52.536;6.042;2022-08-01T11:00:20;8.00;;;2.30;;
48403;SDS011;34202;52.536;6.042;2022-08-01T11:05:21;6.80;;;1.70;;
48403;SDS011;34202;52.536;6.042;2022-08-01T11:10:41;4.20;;;1.40;;
48403;SDS011;34202;52.536;6.042;2022-08-01T11:15:43;8.60;;;1.70;;
48403;SDS011;34202;52.536;6.042;2022-08-01T11:20:54;9.90;;;1.90;;
48403;SDS011;34202;52.536;6.042;2022-08-01T11:46:11;6.10;;;1.90;;
48403;SDS011;34202;52.536;6.042;2022-08-01T11:51:15;2.10;;;1.00;;
48403;SDS011;34202;52.536;6.042;2022-08-01T11:56:16;4.60;;;1.10;;
48403;SDS011;34202;52.536;6.042;2022-08-01T12:01:17;6.40;;;1.30;;
48403;SDS011;34202;52.536;6.042;2022-08-01T12:06:26;4.70;;;1.30;;
48403;SDS011;34202;52.536;6.042;2022-08-01T12:11:28;5.80;;;1.10;;
48403;SDS011;34202;52.536;6.042;2022-08-01T12:16:28;8.10;;;1.00;;
48403;SDS011;34202;52.536;6.042;2022-08-01T12:21:28;3.80;;;1.20;;
48403;SDS011;34202;52.536;6.042;2022-08-01T12:26:47;4.70;;;1.40;;
48403;SDS011;34202;52.536;6.042;2022-08-01T12:31:47;7.30;;;1.50;;
48403;SDS011;34202;52.536;6.042;2022-08-01T12:36:48;3.70;;;1.20;;
48403;SDS011;34202;52.536;6.042;2022-08-01T12:41:48;6.60;;;1.70;;
48403;SDS011;34202;52.536;6.042;2022-08-01T12:46:49;10.70;;;1.80;;
48403;SDS011;34202;52.536;6.042;2022-08-01T12:51:50;5.90;;;1.30;;
48403;SDS011;34202;52.536;6.042;2022-08-01T12:56:51;5.80;;;1.50;;
48403;SDS011;34202;52.536;6.042;2022-08-01T13:01:56;5.70;;;1.20;;
48403;SDS011;34202;52.536;6.042;2022-08-01T13:07:08;6.10;;;1.70;;
48403;SDS011;34202;52.536;6.042;2022-08-01T13:12:09;4.60;;;2.00;;
48403;SDS011;34202;52.536;6.042;2022-08-01T13:17:10;6.40;;;1.40;;
48403;SDS011;34202;52.536;6.042;2022-08-01T13:22:10;4.80;;;1.30;;
48403;SDS011;34202;52.536;6.042;2022-08-01T13:27:19;3.00;;;0.80;;
48403;SDS011;34202;52.536;6.042;2022-08-01T13:32:21;2.70;;;1.00;;
48403;SDS011;34202;52.536;6.042;2022-08-01T13:37:22;4.70;;;1.20;;
48403;SDS011;34202;52.536;6.042;2022-08-01T13:42:23;3.40;;;0.90;;
48403;SDS011;34202;52.536;6.042;2022-08-01T13:47:23;4.30;;;1.20;;
48403;SDS011;34202;52.536;6.042;2022-08-01T13:52:23;5.40;;;1.30;;
48403;SDS011;34202;52.536;6.042;2022-08-01T13:57:24;29.80;;;1.90;;
48403;SDS011;34202;52.536;6.042;2022-08-01T14:02:24;4.50;;;1.20;;
48403;SDS011;34202;52.536;6.042;2022-08-01T14:07:24;7.50;;;1.70;;
48403;SDS011;34202;52.536;6.042;2022-08-01T14:12:25;6.80;;;1.50;;
48403;SDS011;34202;52.536;6.042;2022-08-01T14:17:25;3.70;;;1.20;;
48403;SDS011;34202;52.536;6.042;2022-08-01T14:22:26;2.30;;;0.90;;
48403;SDS011;34202;52.536;6.042;2022-08-01T14:27:26;6.30;;;1.00;;
48403;SDS011;34202;52.536;6.042;2022-08-01T14:32:26;6.20;;;2.10;;
48403;SDS011;34202;52.536;6.042;2022-08-01T14:37:27;2.80;;;0.80;;
48403;SDS011;34202;52.536;6.042;2022-08-01T14:42:29;4.00;;;1.20;;
48403;SDS011;34202;52.536;6.042;2022-08-01T14:47:29;3.60;;;1.10;;
48403;SDS011;34202;52.536;6.042;2022-08-01T14:52:29;6.10;;;1.30;;
48403;SDS011;34202;52.536;6.042;2022-08-01T14:57:30;5.70;;;1.30;;
48403;SDS011;34202;52.536;6.042;2022-08-01T15:02:31;3.60;;;1.40;;
48403;SDS011;34202;52.536;6.042;2022-08-01T15:07:31;4.10;;;1.10;;
48403;SDS011;34202;52.536;6.042;2022-08-01T15:12:32;6.40;;;0.90;;
48403;SDS011;34202;52.536;6.042;2022-08-01T15:17:34;4.70;;;1.70;;
48403;SDS011;34202;52.536;6.042;2022-08-01T15:22:34;2.50;;;1.30;;
48403;SDS011;34202;52.536;6.042;2022-08-01T15:27:34;4.40;;;1.80;;
48403;SDS011;34202;52.536;6.042;2022-08-01T15:32:35;7.80;;;1.60;;
48403;SDS011;34202;52.536;6.042;2022-08-01T15:37:35;7.20;;;1.20;;
48403;SDS011;34202;52.536;6.042;2022-08-01T15:42:35;5.40;;;1.20;;
48403;SDS011;34202;52.536;6.042;2022-08-01T15:47:36;7.80;;;1.50;;
48403;SDS011;34202;52.536;6.042;2022-08-01T15:52:36;6.50;;;1.20;;
48403;SDS011;34202;52.536;6.042;2022-08-01T15:57:36;7.90;;;1.30;;
48403;SDS011;34202;52.536;6.042;2022-08-01T16:02:37;4.10;;;1.70;;
48403;SDS011;34202;52.536;6.042;2022-08-01T16:07:37;8.10;;;1.00;;
48403;SDS011;34202;52.536;6.042;2022-08-01T16:12:38;8.10;;;1.40;;
48403;SDS011;34202;52.536;6.042;2022-08-01T16:17:38;1.80;;;0.60;;
48403;SDS011;34202;52.536;6.042;2022-08-01T16:22:38;4.20;;;1.00;;
48403;SDS011;34202;52.536;6.042;2022-08-01T16:27:39;8.90;;;1.20;;
48403;SDS011;34202;52.536;6.042;2022-08-01T16:32:39;4.60;;;1.50;;
48403;SDS011;34202;52.536;6.042;2022-08-01T16:37:39;4.70;;;1.50;;
48403;SDS011;34202;52.536;6.042;2022-08-01T16:42:40;4.50;;;1.10;;
48403;SDS011;34202;52.536;6.042;2022-08-01T16:47:40;4.00;;;1.60;;
48403;SDS011;34202;52.536;6.042;2022-08-01T16:52:41;6.20;;;1.30;;
48403;SDS011;34202;52.536;6.042;2022-08-01T16:57:41;4.10;;;1.90;;
48403;SDS011;34202;52.536;6.042;2022-08-01T17:02:41;3.80;;;0.80;;
48403;SDS011;34202;52.536;6.042;2022-08-01T17:07:42;2.00;;;0.80;;
48403;SDS011;34202;52.536;6.042;2022-08-01T17:12:42;2.50;;;0.70;;
48403;SDS011;34202;52.536;6.042;2022-08-01T17:17:42;1.80;;;1.00;;
48403;SDS011;34202;52.536;6.042;2022-08-01T17:22:43;5.30;;;0.90;;
48403;SDS011;34202;52.536;6.042;2022-08-01T17:27:43;3.00;;;0.90;;
48403;SDS011;34202;52.536;6.042;2022-08-01T17:32:44;3.80;;;1.20;;
48403;SDS011;34202;52.536;6.042;2022-08-01T17:37:46;7.90;;;2.20;;
48403;SDS011;34202;52.536;6.042;2022-08-01T17:42:47;6.50;;;1.30;;
48403;SDS011;34202;52.536;6.042;2022-08-01T17:47:47;5.60;;;2.00;;
48403;SDS011;34202;52.536;6.042;2022-08-01T17:52:48;2.70;;;0.90;;
48403;SDS011;34202;52.536;6.042;2022-08-01T17:57:48;5.20;;;1.00;;
48403;SDS011;34202;52.536;6.042;2022-08-01T18:02:48;3.00;;;1.10;;
48403;SDS011;34202;52.536;6.042;2022-08-01T18:07:49;4.80;;;1.00;;
48403;SDS011;34202;52.536;6.042;2022-08-01T18:12:49;7.30;;;1.30;;
48403;SDS011;34202;52.536;6.042;2022-08-01T18:17:50;3.10;;;1.50;;
48403;SDS011;34202;52.536;6.042;2022-08-01T18:22:50;2.40;;;1.00;;
48403;SDS011;34202;52.536;6.042;2022-08-01T18:27:51;4.80;;;0.80;;
48403;SDS011;34202;52.536;6.042;2022-08-01T18:32:51;3.90;;;0.90;;
48403;SDS011;34202;52.536;6.042;2022-08-01T18:37:52;5.00;;;1.10;;
48403;SDS011;34202;52.536;6.042;2022-08-01T18:42:52;6.80;;;0.90;;
48403;SDS011;34202;52.536;6.042;2022-08-01T18:47:53;6.00;;;1.90;;
48403;SDS011;34202;52.536;6.042;2022-08-01T18:52:54;6.40;;;1.20;;
48403;SDS011;34202;52.536;6.042;2022-08-01T18:57:54;4.10;;;0.60;;
48403;SDS011;34202;52.536;6.042;2022-08-01T19:02:55;4.50;;;0.80;;
48403;SDS011;34202;52.536;6.042;2022-08-01T19:07:55;4.70;;;1.10;;
48403;SDS011;34202;52.536;6.042;2022-08-01T19:12:56;7.30;;;1.10;;
48403;SDS011;34202;52.536;6.042;2022-08-01T19:17:56;3.60;;;1.10;;
48403;SDS011;34202;52.536;6.042;2022-08-01T19:22:57;6.40;;;1.40;;
48403;SDS011;34202;52.536;6.042;2022-08-01T19:27:57;3.00;;;1.40;;
48403;SDS011;34202;52.536;6.042;2022-08-01T19:32:58;5.60;;;1.30;;
48403;SDS011;34202;52.536;6.042;2022-08-01T19:37:59;9.10;;;1.70;;
48403;SDS011;34202;52.536;6.042;2022-08-01T19:43:01;5.90;;;1.40;;
48403;SDS011;34202;52.536;6.042;2022-08-01T19:48:02;3.90;;;1.40;;
48403;SDS011;34202;52.536;6.042;2022-08-01T19:53:05;4.90;;;1.20;;
48403;SDS011;34202;52.536;6.042;2022-08-01T19:58:06;7.00;;;3.40;;
48403;SDS011;34202;52.536;6.042;2022-08-01T20:03:07;6.20;;;2.00;;
48403;SDS011;34202;52.536;6.042;2022-08-01T20:08:09;2.00;;;1.40;;
48403;SDS011;34202;52.536;6.042;2022-08-01T20:13:11;5.20;;;1.20;;
48403;SDS011;34202;52.536;6.042;2022-08-01T20:18:12;9.60;;;1.90;;
48403;SDS011;34202;52.536;6.042;2022-08-01T20:23:13;5.90;;;1.70;;
48403;SDS011;34202;52.536;6.042;2022-08-01T20:28:15;5.80;;;1.70;;
48403;SDS011;34202;52.536;6.042;2022-08-01T20:33:20;7.80;;;1.40;;
48403;SDS011;34202;52.536;6.042;2022-08-01T20:38:21;4.20;;;1.80;;
48403;SDS011;34202;52.536;6.042;2022-08-01T20:43:24;9.60;;;2.00;;
48403;SDS011;34202;52.536;6.042;2022-08-01T20:48:28;5.20;;;1.50;;
48403;SDS011;34202;52.536;6.042;2022-08-01T20:53:29;6.20;;;1.40;;
48403;SDS011;34202;52.536;6.042;2022-08-01T20:58:35;12.80;;;2.00;;
48403;SDS011;34202;52.536;6.042;2022-08-01T21:03:49;5.60;;;1.90;;
48403;SDS011;34202;52.536;6.042;2022-08-01T21:09:01;4.80;;;2.20;;
48403;SDS011;34202;52.536;6.042;2022-08-01T21:14:04;9.10;;;2.20;;
48403;SDS011;34202;52.536;6.042;2022-08-01T21:19:13;7.50;;;1.80;;
48403;SDS011;34202;52.536;6.042;2022-08-01T21:24:16;5.90;;;2.00;;
48403;SDS011;34202;52.536;6.042;2022-08-01T21:29:18;7.20;;;2.50;;
48403;SDS011;34202;52.536;6.042;2022-08-01T21:34:21;5.90;;;2.10;;
48403;SDS011;34202;52.536;6.042;2022-08-01T21:39:23;7.60;;;2.70;;
48403;SDS011;34202;52.536;6.042;2022-08-01T21:44:24;9.50;;;2.30;;
48403;SDS011;34202;52.536;6.042;2022-08-01T21:49:26;6.50;;;1.70;;
48403;SDS011;34202;52.536;6.042;2022-08-01T22:05:00;5.70;;;1.50;;
48403;SDS011;34202;52.536;6.042;2022-08-01T22:10:04;5.70;;;2.30;;
48403;SDS011;34202;52.536;6.042;2022-08-01T22:15:05;2.80;;;1.40;;
48403;SDS011;34202;52.536;6.042;2022-08-01T22:20:07;6.50;;;1.70;;
48403;SDS011;34202;52.536;6.042;2022-08-01T22:25:08;6.10;;;2.40;;
48403;SDS011;34202;52.536;6.042;2022-08-01T22:30:11;6.60;;;2.00;;
48403;SDS011;34202;52.536;6.042;2022-08-01T22:35:14;4.80;;;2.00;;
48403;SDS011;34202;52.536;6.042;2022-08-01T22:40:15;6.10;;;2.00;;
48403;SDS011;34202;52.536;6.042;2022-08-01T22:45:17;10.10;;;2.50;;
48403;SDS011;34202;52.536;6.042;2022-08-01T22:50:35;4.10;;;2.50;;
48403;SDS011;34202;52.536;6.042;2022-08-01T22:55:37;10.90;;;3.30;;
48403;SDS011;34202;52.536;6.042;2022-08-01T23:00:42;9.60;;;3.10;;
48403;SDS011;34202;52.536;6.042;2022-08-01T23:05:55;9.60;;;2.90;;
48403;SDS011;34202;52.536;6.042;2022-08-01T23:11:03;6.80;;;2.30;;
48403;SDS011;34202;52.536;6.042;2022-08-01T23:16:05;8.20;;;2.60;;
48403;SDS011;34202;52.536;6.042;2022-08-01T23:21:06;8.90;;;2.70;;
48403;SDS011;34202;52.536;6.042;2022-08-01T23:26:07;9.40;;;2.40;;
48403;SDS011;34202;52.536;6.042;2022-08-01T23:31:09;9.60;;;2.30;;
48403;SDS011;34202;52.536;6.042;2022-08-01T23:36:10;7.50;;;2.40;;
48403;SDS011;34202;52.536;6.042;2022-08-01T23:41:11;6.60;;;2.40;;
48403;SDS011;34202;52.536;6.042;2022-08-01T23:46:14;6.90;;;2.40;;
48403;SDS011;34202;52.536;6.042;2022-08-01T23:51:15;4.70;;;2.40;;
48403;SDS011;34202;52.536;6.042;2022-08-01T23:56:15;8.40;;;2.60;;
